Time;durP1;ratioP1;P1;durP2;ratioP2;P2;SDS_P1;SDS_P2;PMS_P1;PMS_P2;Temp;Humidity;BMP_temperature;BMP_pressure;BME280_temperature;BME280_humidity;BME280_pressure;Samples;Min_cycle;Max_cycle;Signal;HPM_P1;HPM_P2
2022/10/10 00:00:03;;;;;;;23.60;22.00;;;12.30;90.50;;;;;;5047119;28;20675;-78
2022/10/10 00:02:30;;;;;;;23.77;22.27;;;12.30;90.50;;;;;;5046330;28;20552;-78
2022/10/10 00:04:57;;;;;;;23.57;21.87;;;12.30;90.60;;;;;;5045046;28;20558;-78
2022/10/10 00:07:25;;;;;;;23.07;21.70;;;12.30;90.60;;;;;;5048187;28;20554;-78
2022/10/10 00:09:52;;;;;;;23.40;22.10;;;12.30;90.60;;;;;;5046830;28;20466;-78
2022/10/10 00:12:19;;;;;;;23.73;22.20;;;12.30;90.70;;;;;;5051157;28;20921;-78
2022/10/10 00:14:46;;;;;;;23.47;22.07;;;12.30;90.80;;;;;;5044823;28;20840;-78
2022/10/10 00:17:13;;;;;;;23.07;21.27;;;12.40;90.80;;;;;;5045916;28;20526;-78
2022/10/10 00:19:40;;;;;;;23.33;21.70;;;12.40;90.70;;;;;;5048047;28;20495;-78
2022/10/10 00:22:07;;;;;;;21.93;20.60;;;12.40;90.80;;;;;;5049279;28;20462;-78
2022/10/10 00:24:35;;;;;;;22.27;20.77;;;12.40;90.80;;;;;;5045704;28;20466;-78
2022/10/10 00:27:02;;;;;;;22.43;20.90;;;12.50;90.70;;;;;;5046120;28;20495;-78
2022/10/10 00:29:29;;;;;;;21.70;20.50;;;12.50;90.80;;;;;;5046358;28;20465;-78
2022/10/10 00:31:56;;;;;;;23.40;21.70;;;12.60;90.30;;;;;;5047839;28;20455;-78
2022/10/10 00:34:23;;;;;;;21.90;20.30;;;12.60;90.20;;;;;;5045064;28;20486;-78
2022/10/10 00:36:50;;;;;;;22.93;21.43;;;12.60;90.40;;;;;;5049013;28;20459;-78
2022/10/10 00:39:17;;;;;;;22.83;21.43;;;12.50;90.70;;;;;;5043997;28;20548;-78
2022/10/10 00:41:45;;;;;;;21.77;20.37;;;12.50;90.60;;;;;;5046475;28;20467;-78
2022/10/10 00:44:14;;;;;;;22.70;21.03;;;12.60;90.60;;;;;;5047367;28;20485;-78
2022/10/10 00:46:42;;;;;;;21.43;20.13;;;12.60;90.60;;;;;;5047557;28;20554;-78
2022/10/10 00:49:15;;;;;;;21.30;20.00;;;12.60;90.60;;;;;;5045841;28;20829;-78
2022/10/10 00:51:43;;;;;;;21.87;20.57;;;12.70;90.50;;;;;;5042600;28;20455;-78
2022/10/10 00:54:12;;;;;;;22.07;20.50;;;12.60;90.40;;;;;;5046647;28;20995;-78
2022/10/10 00:56:43;;;;;;;21.37;19.97;;;12.60;90.50;;;;;;5048218;28;20470;-78
2022/10/10 00:59:12;;;;;;;22.20;20.83;;;12.60;90.60;;;;;;5043846;28;20948;-78
2022/10/10 01:01:39;;;;;;;21.43;20.23;;;12.70;90.70;;;;;;5047987;28;20509;-78
2022/10/10 01:04:06;;;;;;;22.77;21.20;;;12.70;90.60;;;;;;5045223;28;20832;-78
2022/10/10 01:06:34;;;;;;;23.30;21.60;;;12.70;90.60;;;;;;5031879;28;20469;-78
2022/10/10 01:09:01;;;;;;;21.50;20.33;;;12.70;90.50;;;;;;5047521;28;20477;-78
2022/10/10 01:11:49;;;;;;;23.57;21.90;;;12.70;90.40;;;;;;5046883;28;20499;-78
2022/10/10 01:14:32;;;;;;;23.87;21.70;;;12.70;90.50;;;;;;5046084;28;20474;-78
2022/10/10 01:17:05;;;;;;;23.00;21.40;;;12.70;90.50;;;;;;5043852;28;20459;-78
2022/10/10 01:20:05;;;;;;;22.57;21.10;;;12.70;90.50;;;;;;5044988;28;20542;-78
2022/10/10 01:22:39;;;;;;;23.40;21.90;;;12.70;90.50;;;;;;5043538;28;20474;-78
2022/10/10 01:25:17;;;;;;;24.60;22.90;;;12.70;90.50;;;;;;5048580;28;20474;-78
2022/10/10 01:27:48;;;;;;;24.27;22.77;;;12.70;90.50;;;;;;5046859;28;20544;-78
2022/10/10 01:30:20;;;;;;;23.07;21.57;;;12.80;90.40;;;;;;5047318;28;20598;-78
2022/10/10 01:32:52;;;;;;;23.80;22.20;;;12.70;90.40;;;;;;5041858;28;20975;-78
2022/10/10 01:35:32;;;;;;;24.03;22.23;;;12.70;90.50;;;;;;5048790;28;20475;-78
2022/10/10 01:38:07;;;;;;;22.10;20.70;;;12.70;90.50;;;;;;5046316;28;21242;-78
2022/10/10 01:40:41;;;;;;;22.07;20.67;;;12.70;90.40;;;;;;5041857;28;20458;-78
2022/10/10 01:43:09;;;;;;;23.00;21.30;;;12.80;90.30;;;;;;5047509;28;20447;-78
2022/10/10 01:45:37;;;;;;;23.33;21.83;;;12.80;90.30;;;;;;5046195;28;20962;-78
2022/10/10 01:48:07;;;;;;;23.93;22.10;;;12.80;90.30;;;;;;5046120;28;20486;-78
2022/10/10 01:50:48;;;;;;;22.53;21.23;;;12.80;90.40;;;;;;5047996;28;21028;-78
2022/10/10 01:53:21;;;;;;;22.77;21.43;;;12.80;90.30;;;;;;5043091;28;20553;-78
2022/10/10 01:56:07;;;;;;;20.80;19.33;;;12.90;90.30;;;;;;5047366;28;20459;-78
2022/10/10 01:58:58;;;;;;;23.40;21.90;;;12.80;90.30;;;;;;5038679;28;20458;-78
2022/10/10 02:01:34;;;;;;;22.70;21.27;;;12.90;90.30;;;;;;5045847;28;20546;-78
2022/10/10 02:04:06;;;;;;;23.43;21.93;;;12.90;90.30;;;;;;5044552;28;20501;-78
2022/10/10 02:06:40;;;;;;;22.90;21.60;;;12.90;90.20;;;;;;5043948;28;21041;-78
2022/10/10 02:09:11;;;;;;;24.87;23.37;;;12.90;90.20;;;;;;5046492;28;20471;-78
2022/10/10 02:11:40;;;;;;;29.87;28.20;;;12.90;90.20;;;;;;5047238;28;20545;-78
2022/10/10 02:14:12;;;;;;;26.20;24.40;;;12.90;90.30;;;;;;5047853;28;20474;-78
2022/10/10 02:16:45;;;;;;;24.10;22.70;;;12.80;90.50;;;;;;5050094;28;20535;-78
2022/10/10 02:19:16;;;;;;;22.33;20.93;;;12.90;90.50;;;;;;5042426;28;20438;-78
2022/10/10 02:21:45;;;;;;;24.83;23.10;;;12.80;90.60;;;;;;5051975;28;20465;-78
2022/10/10 02:24:13;;;;;;;29.60;27.93;;;12.80;90.50;;;;;;5049971;28;20475;-78
2022/10/10 02:26:44;;;;;;;25.60;24.07;;;12.80;90.60;;;;;;5049334;28;20455;-78
2022/10/10 02:29:15;;;;;;;23.30;22.00;;;12.80;90.60;;;;;;5046473;28;20481;-78
2022/10/10 02:31:49;;;;;;;23.67;22.17;;;12.80;90.70;;;;;;5048765;28;20469;-78
2022/10/10 02:34:19;;;;;;;22.90;21.30;;;12.70;90.90;;;;;;5046918;28;20596;-79
2022/10/10 02:36:51;;;;;;;29.03;27.43;;;12.80;90.90;;;;;;5050792;28;20487;-78
2022/10/10 02:39:21;;;;;;;25.93;24.33;;;12.80;90.90;;;;;;5048247;28;20577;-79
2022/10/10 02:41:50;;;;;;;24.37;22.67;;;12.80;90.90;;;;;;5042553;28;20474;-79
2022/10/10 02:44:19;;;;;;;24.00;22.60;;;12.80;91.00;;;;;;5048829;28;20471;-79
2022/10/10 02:46:47;;;;;;;24.37;22.70;;;12.80;91.00;;;;;;5051428;28;20459;-79
2022/10/10 02:49:14;;;;;;;39.77;37.40;;;12.70;91.00;;;;;;5049420;28;20568;-79
2022/10/10 02:51:41;;;;;;;22.30;21.00;;;12.70;91.00;;;;;;5050687;28;20455;-78
2022/10/10 02:54:07;;;;;;;39.20;37.10;;;12.70;91.00;;;;;;5049473;28;20510;-78
2022/10/10 02:56:34;;;;;;;25.50;24.10;;;12.70;91.20;;;;;;5048998;28;20487;-79
2022/10/10 02:59:01;;;;;;;32.83;31.03;;;12.60;91.60;;;;;;5047937;28;20455;-79
2022/10/10 03:01:28;;;;;;;37.17;35.23;;;12.60;91.80;;;;;;5050230;28;20459;-78
2022/10/10 03:03:56;;;;;;;31.00;28.80;;;12.60;91.80;;;;;;5047952;28;20486;-78
2022/10/10 03:06:23;;;;;;;32.73;31.03;;;12.50;92.10;;;;;;5056107;28;20955;-78
2022/10/10 03:08:50;;;;;;;25.17;23.67;;;12.50;92.20;;;;;;5050167;28;20478;-78
2022/10/10 03:11:18;;;;;;;26.47;25.07;;;12.50;92.10;;;;;;5048464;28;20537;-78
2022/10/10 03:13:45;;;;;;;21.77;20.57;;;12.50;92.00;;;;;;5051838;28;20478;-78
2022/10/10 03:16:12;;;;;;;21.47;20.07;;;12.60;92.00;;;;;;5049116;28;20467;-78
2022/10/10 03:18:39;;;;;;;24.97;23.53;;;12.50;92.20;;;;;;5048033;28;20451;-78
2022/10/10 03:21:07;;;;;;;21.63;20.33;;;12.50;92.30;;;;;;5049837;28;20455;-78
2022/10/10 03:23:34;;;;;;;28.83;27.20;;;12.40;92.60;;;;;;5044911;28;20486;-78
2022/10/10 03:26:01;;;;;;;20.80;19.37;;;12.40;92.70;;;;;;5051334;28;20957;-78
2022/10/10 03:28:28;;;;;;;22.93;21.53;;;12.40;92.80;;;;;;5049861;28;20827;-75
2022/10/10 03:30:55;;;;;;;42.00;39.70;;;12.40;92.90;;;;;;5046700;28;20455;-78
2022/10/10 03:33:22;;;;;;;38.43;36.30;;;12.30;93.00;;;;;;5049710;28;20488;-78
2022/10/10 03:35:50;;;;;;;21.63;20.20;;;12.40;92.90;;;;;;5036647;28;20534;-78
2022/10/10 03:38:18;;;;;;;26.57;25.07;;;12.40;92.80;;;;;;5052172;28;20479;-78
2022/10/10 03:40:45;;;;;;;24.57;23.17;;;12.40;92.90;;;;;;5049106;28;20469;-78
2022/10/10 03:43:14;;;;;;;28.37;26.83;;;12.40;92.80;;;;;;5049229;28;20468;-78
2022/10/10 03:45:42;;;;;;;44.70;42.30;;;12.40;92.70;;;;;;5047766;28;20467;-78
2022/10/10 03:48:10;;;;;;;21.87;20.57;;;12.40;92.60;;;;;;5048175;28;20501;-78
2022/10/10 03:50:37;;;;;;;19.80;18.50;;;12.40;92.60;;;;;;5038955;28;20579;-79
2022/10/10 03:53:04;;;;;;;22.67;21.20;;;12.50;92.60;;;;;;5047767;28;20538;-78
2022/10/10 03:55:32;;;;;;;38.57;36.27;;;12.50;92.50;;;;;;5049408;28;20457;-78
2022/10/10 03:58:01;;;;;;;22.50;21.23;;;12.50;92.50;;;;;;5046750;28;20467;-78
2022/10/10 04:00:28;;;;;;;32.77;30.97;;;12.50;92.50;;;;;;5048087;28;20457;-78
2022/10/10 04:02:55;;;;;;;27.77;26.27;;;12.50;92.50;;;;;;5047299;28;20451;-79
2022/10/10 04:05:22;;;;;;;22.93;21.53;;;12.50;92.40;;;;;;5050755;28;20490;-78
2022/10/10 04:07:49;;;;;;;32.97;30.93;;;12.50;92.40;;;;;;5046193;28;20982;-78
2022/10/10 04:10:16;;;;;;;22.07;19.90;;;12.50;92.30;;;;;;5047559;28;20475;-78
2022/10/10 04:12:44;;;;;;;34.50;32.67;;;12.50;92.30;;;;;;5046461;28;20451;-78
2022/10/10 04:15:11;;;;;;;40.80;38.73;;;12.50;92.40;;;;;;5036505;28;20481;-79
2022/10/10 04:17:38;;;;;;;33.50;31.47;;;12.50;92.40;;;;;;5046823;28;20462;-78
2022/10/10 04:20:06;;;;;;;26.57;25.27;;;12.50;92.50;;;;;;5046816;28;20451;-78
2022/10/10 04:22:32;;;;;;;34.00;32.30;;;12.50;92.60;;;;;;5048456;28;20485;-78
2022/10/10 04:24:59;;;;;;;19.03;17.83;;;12.50;92.70;;;;;;5048130;28;20485;-78
2022/10/10 04:27:26;;;;;;;32.67;30.67;;;12.40;92.80;;;;;;5047780;28;20455;-78
2022/10/10 04:29:55;;;;;;;21.90;20.70;;;12.50;92.80;;;;;;5047791;28;20475;-79
2022/10/10 04:32:22;;;;;;;31.97;30.07;;;12.40;92.70;;;;;;5047257;28;20460;-78
2022/10/10 04:34:49;;;;;;;24.50;23.00;;;12.40;92.80;;;;;;5044226;28;20504;-75
2022/10/10 04:37:16;;;;;;;33.03;31.30;;;12.50;92.80;;;;;;5046634;28;20849;-75
2022/10/10 04:39:43;;;;;;;29.47;27.87;;;12.50;92.50;;;;;;5044612;28;20457;-74
2022/10/10 04:42:10;;;;;;;23.20;21.70;;;12.50;92.60;;;;;;5042436;28;20976;-77
2022/10/10 04:44:37;;;;;;;19.67;18.23;;;12.50;92.60;;;;;;5038376;28;20490;-76
2022/10/10 04:47:06;;;;;;;27.30;25.40;;;12.50;92.70;;;;;;5045761;28;20530;-77
2022/10/10 04:49:32;;;;;;;19.30;18.10;;;12.40;92.80;;;;;;5044567;28;20471;-77
2022/10/10 04:51:59;;;;;;;20.37;19.10;;;12.40;92.90;;;;;;5049089;28;20465;-77
2022/10/10 04:54:26;;;;;;;20.77;19.40;;;12.40;93.10;;;;;;5047005;28;20485;-76
2022/10/10 04:56:53;;;;;;;19.73;18.33;;;12.40;93.10;;;;;;5046113;28;20462;-77
2022/10/10 04:59:21;;;;;;;18.10;17.00;;;12.30;93.30;;;;;;5047298;28;20455;-77
2022/10/10 05:01:48;;;;;;;17.77;16.67;;;12.30;93.40;;;;;;5049219;28;20483;-78
2022/10/10 05:04:16;;;;;;;35.50;33.57;;;12.30;93.40;;;;;;5050461;28;20510;-80
2022/10/10 05:06:43;;;;;;;28.27;26.67;;;12.40;93.40;;;;;;5057581;28;20455;-82
2022/10/10 05:09:10;;;;;;;18.00;16.73;;;12.40;93.40;;;;;;5050234;28;20505;-82
2022/10/10 05:11:37;;;;;;;18.70;17.30;;;12.40;93.40;;;;;;5055553;28;20208;-79
2022/10/10 05:14:04;;;;;;;17.80;16.73;;;12.40;93.30;;;;;;5052872;28;20575;-79
2022/10/10 05:16:31;;;;;;;27.20;25.60;;;12.40;93.40;;;;;;5049034;28;20463;-79
2022/10/10 05:19:00;;;;;;;30.47;28.77;;;12.40;93.40;;;;;;5051873;28;20474;-79
2022/10/10 05:21:28;;;;;;;28.40;26.60;;;12.40;93.40;;;;;;5048713;28;20451;-79
2022/10/10 05:23:55;;;;;;;24.60;23.03;;;12.40;93.40;;;;;;5049104;28;20467;-78
2022/10/10 05:26:22;;;;;;;26.57;25.10;;;12.40;93.50;;;;;;5044431;28;20541;-78
2022/10/10 05:28:49;;;;;;;22.27;20.93;;;12.40;93.50;;;;;;5048939;28;20547;-78
2022/10/10 05:31:16;;;;;;;18.20;17.10;;;12.40;93.50;;;;;;5045697;28;20455;-77
2022/10/10 05:33:43;;;;;;;30.53;28.57;;;12.40;93.50;;;;;;5046001;28;20479;-77
2022/10/10 05:36:12;;;;;;;17.40;16.40;;;12.40;93.50;;;;;;5044330;28;20463;-76
2022/10/10 05:38:41;;;;;;;17.43;16.33;;;12.50;93.40;;;;;;5049499;28;20546;-76
2022/10/10 05:41:09;;;;;;;20.17;19.07;;;12.50;93.40;;;;;;5044422;28;20884;-76
2022/10/10 05:43:36;;;;;;;19.70;18.50;;;12.60;93.20;;;;;;5038720;28;20479;-76
2022/10/10 05:46:04;;;;;;;20.03;18.33;;;12.60;93.10;;;;;;5030574;28;20547;-76
2022/10/10 05:48:31;;;;;;;26.33;24.83;;;12.60;93.30;;;;;;5053018;28;20549;-77
2022/10/10 05:51:00;;;;;;;20.63;19.30;;;12.60;93.50;;;;;;5049662;28;20478;-76
2022/10/10 05:53:28;;;;;;;32.83;30.93;;;12.60;93.50;;;;;;5053765;28;20482;-77
2022/10/10 05:56:01;;;;;;;18.80;17.50;;;12.70;93.50;;;;;;5052137;28;20569;-76
2022/10/10 05:58:29;;;;;;;30.17;28.07;;;12.70;93.60;;;;;;5052844;28;20537;-77
2022/10/10 06:01:03;;;;;;;26.53;25.00;;;12.70;93.60;;;;;;5047316;28;20538;-76
2022/10/10 06:03:30;;;;;;;31.87;30.00;;;12.80;93.60;;;;;;5054120;28;20479;-78
2022/10/10 06:05:57;;;;;;;28.10;25.80;;;12.80;93.40;;;;;;5052363;28;20474;-76
2022/10/10 06:08:25;;;;;;;17.53;15.67;;;12.90;93.20;;;;;;5052656;28;20454;-77
2022/10/10 06:10:52;;;;;;;33.83;31.83;;;12.90;93.10;;;;;;5050345;28;20478;-77
2022/10/10 06:13:21;;;;;;;19.43;18.20;;;13.00;92.90;;;;;;5050185;28;20482;-77
2022/10/10 06:15:51;;;;;;;37.17;35.20;;;13.10;92.60;;;;;;5051628;28;20447;-77
2022/10/10 06:18:18;;;;;;;27.67;26.00;;;13.00;92.50;;;;;;5052283;28;20545;-77
2022/10/10 06:20:45;;;;;;;27.57;25.83;;;13.00;92.70;;;;;;5050507;28;20455;-76
2022/10/10 06:23:12;;;;;;;23.70;22.27;;;13.10;92.50;;;;;;5050007;28;20463;-77
2022/10/10 06:25:39;;;;;;;19.27;17.90;;;13.20;92.40;;;;;;5048353;28;20483;-77
2022/10/10 06:28:06;;;;;;;18.87;17.60;;;13.20;92.10;;;;;;5052331;28;20818;-77
2022/10/10 06:30:41;;;;;;;20.40;18.70;;;13.20;91.90;;;;;;5048658;28;20474;-83
2022/10/10 06:33:08;;;;;;;21.50;19.80;;;13.20;92.00;;;;;;5036499;28;20452;-80
2022/10/10 06:35:40;;;;;;;27.43;25.67;;;13.40;92.00;;;;;;5051831;28;20467;-76
2022/10/10 06:38:07;;;;;;;29.03;27.00;;;13.50;91.60;;;;;;5032539;28;20467;-76
2022/10/10 06:40:34;;;;;;;21.03;19.60;;;13.60;91.30;;;;;;5044073;28;20531;-77
2022/10/10 06:43:03;;;;;;;29.90;28.03;;;13.60;91.10;;;;;;5040614;28;20502;-77
2022/10/10 06:45:30;;;;;;;23.90;22.00;;;13.70;90.60;;;;;;5048801;28;20960;-77
2022/10/10 06:47:58;;;;;;;23.70;21.90;;;13.80;90.30;;;;;;5035170;28;20470;-77
2022/10/10 06:50:25;;;;;;;23.07;20.10;;;13.80;90.30;;;;;;5046398;28;20894;-78
2022/10/10 06:52:52;;;;;;;31.90;29.10;;;13.90;90.10;;;;;;5048825;28;20497;-78
2022/10/10 06:55:19;;;;;;;30.07;27.50;;;13.90;89.90;;;;;;5050560;28;20474;-76
2022/10/10 06:57:47;;;;;;;22.70;20.87;;;14.00;89.70;;;;;;5040027;28;20547;-77
2022/10/10 07:00:15;;;;;;;22.47;20.57;;;14.00;89.70;;;;;;5039637;28;20810;-76
2022/10/10 07:02:42;;;;;;;29.47;27.13;;;14.10;89.40;;;;;;5042674;28;20456;-76
2022/10/10 07:05:15;;;;;;;23.03;21.57;;;14.20;89.30;;;;;;5056907;28;20581;-77
2022/10/10 07:07:42;;;;;;;23.73;21.33;;;14.30;89.10;;;;;;5069357;28;20452;-77
2022/10/10 07:10:13;;;;;;;37.43;34.03;;;14.50;88.80;;;;;;5051012;28;20478;-76
2022/10/10 07:12:40;;;;;;;23.63;20.60;;;14.60;88.50;;;;;;5046268;28;20458;-76
2022/10/10 07:15:11;;;;;;;23.30;21.00;;;14.70;88.10;;;;;;5051826;28;20532;-77
2022/10/10 07:17:38;;;;;;;32.53;30.37;;;14.80;87.70;;;;;;5050541;28;20462;-77
2022/10/10 07:20:06;;;;;;;27.60;25.53;;;14.80;87.50;;;;;;5049198;28;20463;-76
2022/10/10 07:22:35;;;;;;;24.37;21.83;;;14.80;87.20;;;;;;5042612;28;20992;-76
2022/10/10 07:25:02;;;;;;;38.20;36.10;;;14.90;87.10;;;;;;5044771;28;20988;-76
2022/10/10 07:27:29;;;;;;;26.37;24.50;;;15.00;86.70;;;;;;5047676;28;20487;-76
2022/10/10 07:29:56;;;;;;;29.53;27.83;;;15.10;86.30;;;;;;5048767;28;20479;-76
2022/10/10 07:32:22;;;;;;;41.13;38.90;;;15.10;86.10;;;;;;5047180;28;20996;-76
2022/10/10 07:34:50;;;;;;;43.60;40.80;;;15.30;85.90;;;;;;5034008;28;20490;-75
2022/10/10 07:37:17;;;;;;;40.30;37.87;;;15.40;85.60;;;;;;5046755;28;20568;-75
2022/10/10 07:39:45;;;;;;;36.53;34.33;;;15.50;85.20;;;;;;5047861;28;20470;-76
2022/10/10 07:42:12;;;;;;;27.37;25.47;;;15.70;84.60;;;;;;5048586;28;20802;-76
2022/10/10 07:44:39;;;;;;;56.63;53.87;;;15.70;84.30;;;;;;5050409;28;20575;-75
2022/10/10 07:47:06;;;;;;;33.33;31.50;;;15.80;84.00;;;;;;5048515;28;20550;-76
2022/10/10 07:49:34;;;;;;;27.93;25.90;;;15.90;83.90;;;;;;5050199;28;20552;-79
2022/10/10 07:52:01;;;;;;;40.73;38.03;;;16.00;83.60;;;;;;5051422;28;20463;-77
2022/10/10 07:54:28;;;;;;;53.53;50.83;;;16.10;83.20;;;;;;5056684;28;20494;-79
2022/10/10 07:56:57;;;;;;;43.07;40.57;;;16.20;83.00;;;;;;5059402;28;20534;-79
2022/10/10 07:59:25;;;;;;;34.90;32.57;;;16.40;82.80;;;;;;5057373;28;20463;-79
2022/10/10 08:01:52;;;;;;;41.43;38.93;;;16.50;82.40;;;;;;5057263;28;20554;-81
2022/10/10 08:04:19;;;;;;;42.80;40.00;;;16.70;82.10;;;;;;5049422;28;20557;-79
2022/10/10 08:06:47;;;;;;;31.80;29.80;;;16.80;81.40;;;;;;5049212;28;20490;-79
2022/10/10 08:09:14;;;;;;;28.47;26.27;;;16.90;81.20;;;;;;5051978;28;20516;-78
2022/10/10 08:11:41;;;;;;;31.77;30.07;;;17.00;81.00;;;;;;5047640;28;20474;-77
2022/10/10 08:14:09;;;;;;;49.07;46.13;;;17.10;80.80;;;;;;5048504;28;20483;-77
2022/10/10 08:16:36;;;;;;;35.17;33.27;;;17.20;81.00;;;;;;5048463;28;20840;-77
2022/10/10 08:19:03;;;;;;;27.13;25.37;;;17.40;80.50;;;;;;5047680;28;20466;-77
2022/10/10 08:21:30;;;;;;;49.50;47.07;;;17.50;80.00;;;;;;5049055;28;20455;-77
2022/10/10 08:23:57;;;;;;;44.37;41.87;;;17.60;79.40;;;;;;5036683;28;20568;-77
2022/10/10 08:26:25;;;;;;;43.03;40.47;;;17.70;79.40;;;;;;5044969;28;20973;-77
2022/10/10 08:28:51;;;;;;;35.60;33.67;;;17.80;79.00;;;;;;5048443;28;21047;-77
2022/10/10 08:31:21;;;;;;;35.40;33.67;;;17.80;78.30;;;;;;5044724;28;20970;-77
2022/10/10 08:33:50;;;;;;;38.30;36.30;;;17.80;78.70;;;;;;5047363;28;20916;-77
2022/10/10 08:36:19;;;;;;;31.87;29.80;;;17.80;78.70;;;;;;5045815;28;20816;-77
2022/10/10 08:38:46;;;;;;;30.17;28.77;;;17.90;78.50;;;;;;5047386;28;20474;-77
2022/10/10 08:41:26;;;;;;;36.10;34.20;;;17.90;78.50;;;;;;5047627;28;20463;-77
2022/10/10 08:43:57;;;;;;;34.43;32.10;;;18.00;78.40;;;;;;5033150;28;20944;-77
2022/10/10 08:46:34;;;;;;;48.87;46.47;;;18.10;78.50;;;;;;5045531;28;21082;-77
2022/10/10 08:49:13;;;;;;;30.27;28.77;;;18.10;78.30;;;;;;5048190;28;21186;-77
2022/10/10 08:51:42;;;;;;;36.43;34.43;;;18.20;77.90;;;;;;5046280;28;20478;-77
2022/10/10 08:54:14;;;;;;;34.67;32.83;;;18.30;77.60;;;;;;5047857;28;20558;-77
2022/10/10 08:56:42;;;;;;;39.70;37.63;;;18.40;77.40;;;;;;5042848;28;20459;-77
2022/10/10 08:59:16;;;;;;;47.90;45.50;;;18.50;77.10;;;;;;5048032;28;20820;-76
2022/10/10 09:01:44;;;;;;;38.43;36.53;;;18.60;76.90;;;;;;5047754;28;21043;-76
2022/10/10 09:04:16;;;;;;;32.63;30.80;;;18.70;76.80;;;;;;5048027;28;21005;-76
2022/10/10 09:07:04;;;;;;;44.47;42.27;;;18.70;76.50;;;;;;5046840;28;20455;-77
2022/10/10 09:09:38;;;;;;;31.53;29.10;;;18.80;76.30;;;;;;5045938;28;20473;-77
2022/10/10 09:12:18;;;;;;;41.70;39.70;;;18.90;76.20;;;;;;5046272;28;20574;-77
2022/10/10 09:14:51;;;;;;;35.10;33.27;;;19.00;76.00;;;;;;5047357;28;20557;-77
2022/10/10 09:17:36;;;;;;;32.17;30.63;;;19.10;76.00;;;;;;5049732;28;20473;-78
2022/10/10 09:20:15;;;;;;;32.07;29.93;;;19.20;75.70;;;;;;5046569;28;20462;-78
2022/10/10 09:22:49;;;;;;;39.00;37.17;;;19.40;75.30;;;;;;5035810;28;20541;-78
2022/10/10 09:25:22;;;;;;;45.13;43.03;;;19.50;75.00;;;;;;5051708;28;20558;-78
2022/10/10 09:27:58;;;;;;;40.40;38.50;;;19.70;74.90;;;;;;5049053;28;20455;-78
2022/10/10 09:30:32;;;;;;;50.40;48.00;;;19.80;74.20;;;;;;5038873;28;20475;-78
2022/10/10 09:33:08;;;;;;;31.37;29.83;;;19.90;74.10;;;;;;5050962;28;20501;-77
2022/10/10 09:35:38;;;;;;;36.57;34.77;;;20.10;73.60;;;;;;5038696;28;20458;-77
2022/10/10 09:38:23;;;;;;;37.63;35.77;;;20.10;73.80;;;;;;5049387;28;20542;-75
2022/10/10 09:40:57;;;;;;;45.90;43.50;;;20.20;73.10;;;;;;5052964;28;20454;-77
2022/10/10 09:43:29;;;;;;;45.90;43.70;;;20.40;72.60;;;;;;5049152;28;20486;-77
2022/10/10 09:45:56;;;;;;;38.47;36.73;;;20.40;72.60;;;;;;5033159;28;20460;-77
2022/10/10 09:48:29;;;;;;;34.30;32.50;;;20.50;72.30;;;;;;5049227;28;20484;-78
2022/10/10 09:50:56;;;;;;;41.13;38.90;;;20.50;72.20;;;;;;5052375;28;20478;-77
2022/10/10 09:53:23;;;;;;;42.57;40.40;;;20.30;72.50;;;;;;5051792;28;20505;-77
2022/10/10 09:55:52;;;;;;;35.77;33.90;;;20.30;72.70;;;;;;5052644;28;20483;-77
2022/10/10 09:58:27;;;;;;;47.33;45.00;;;20.40;72.30;;;;;;5052262;28;21007;-77
2022/10/10 10:00:54;;;;;;;32.47;30.57;;;20.50;72.10;;;;;;5052310;28;20520;-77
2022/10/10 10:03:22;;;;;;;39.63;37.73;;;20.70;71.50;;;;;;5052349;28;20470;-77
2022/10/10 10:05:59;;;;;;;31.17;29.60;;;20.80;71.60;;;;;;5065222;28;20497;-76
2022/10/10 10:08:29;;;;;;;33.40;31.53;;;21.00;71.10;;;;;;5051515;28;21088;-77
2022/10/10 10:10:59;;;;;;;42.20;40.20;;;21.20;70.70;;;;;;5052028;28;20509;-77
2022/10/10 10:13:30;;;;;;;37.03;35.23;;;21.30;70.10;;;;;;5049527;28;20479;-74
2022/10/10 10:16:02;;;;;;;35.53;33.80;;;21.40;69.50;;;;;;5051043;28;21174;-78
2022/10/10 10:18:30;;;;;;;44.77;42.57;;;21.40;69.50;;;;;;5050151;28;20467;-77
2022/10/10 10:21:25;;;;;;;34.20;32.40;;;21.50;69.20;;;;;;5049547;28;20455;-78
2022/10/10 10:23:56;;;;;;;43.70;41.60;;;21.60;68.80;;;;;;5005405;28;20481;-79
2022/10/10 10:26:26;;;;;;;38.90;36.90;;;21.50;68.90;;;;;;5056433;28;20465;-80
2022/10/10 10:28:56;;;;;;;39.93;38.03;;;21.50;69.20;;;;;;5038453;28;20982;-79
2022/10/10 10:31:49;;;;;;;48.03;45.70;;;21.50;69.20;;;;;;5050902;28;20579;-81
2022/10/10 10:34:38;;;;;;;32.23;30.40;;;21.60;69.20;;;;;;5033646;28;20479;-80
2022/10/10 10:37:16;;;;;;;45.17;42.97;;;21.80;68.90;;;;;;5050877;28;20494;-79
2022/10/10 10:39:54;;;;;;;32.83;31.03;;;21.90;68.50;;;;;;5058797;28;21183;-79
2022/10/10 10:42:38;;;;;;;31.30;30.00;;;22.10;67.90;;;;;;5056725;28;20469;-79
2022/10/10 10:45:15;;;;;;;32.97;31.07;;;22.20;67.60;;;;;;5063050;28;20539;-80
2022/10/10 10:47:50;;;;;;;39.83;37.77;;;22.40;66.90;;;;;;5047030;28;20472;-79
2022/10/10 10:50:33;;;;;;;31.13;29.43;;;22.50;66.90;;;;;;5044419;28;20542;-80
2022/10/10 10:53:09;;;;;;;32.73;30.63;;;22.50;66.30;;;;;;5058661;28;20451;-80
2022/10/10 10:55:42;;;;;;;35.23;33.53;;;22.50;66.30;;;;;;5056716;28;20471;-80
2022/10/10 10:58:27;;;;;;;35.83;34.03;;;22.40;65.90;;;;;;5046814;28;20982;-80
2022/10/10 11:00:58;;;;;;;52.60;49.60;;;22.30;65.60;;;;;;5052211;28;20893;-80
2022/10/10 11:03:42;;;;;;;42.73;40.53;;;22.30;65.80;;;;;;5052234;28;21039;-81
2022/10/10 11:06:26;;;;;;;33.37;31.57;;;22.10;66.30;;;;;;5036673;28;20512;-79
2022/10/10 11:09:03;;;;;;;31.47;29.77;;;21.80;67.10;;;;;;5049223;28;20486;-80
2022/10/10 11:11:44;;;;;;;35.07;32.97;;;21.80;67.00;;;;;;5049973;28;20474;-78
2022/10/10 11:14:27;;;;;;;41.10;39.17;;;21.80;67.00;;;;;;5052142;28;20463;-79
2022/10/10 11:17:03;;;;;;;43.27;40.87;;;21.80;67.20;;;;;;5049999;28;20541;-79
2022/10/10 11:19:38;;;;;;;33.83;32.13;;;21.70;67.40;;;;;;5040446;28;20500;-80
2022/10/10 11:22:16;;;;;;;45.57;42.83;;;21.70;67.40;;;;;;5040376;28;20447;-78
2022/10/10 11:24:52;;;;;;;37.87;36.17;;;21.70;67.30;;;;;;5056035;28;20550;-79
2022/10/10 11:27:22;;;;;;;36.03;34.03;;;21.60;66.50;;;;;;5055175;28;20534;-78
2022/10/10 11:29:59;;;;;;;33.83;32.10;;;21.60;66.40;;;;;;5052524;28;20534;-78
2022/10/10 11:32:33;;;;;;;48.17;45.17;;;21.70;66.30;;;;;;5042147;28;20542;-78
2022/10/10 11:35:18;;;;;;;42.63;40.23;;;21.80;65.90;;;;;;5052740;28;20479;-81
2022/10/10 11:37:50;;;;;;;38.50;36.20;;;21.70;65.50;;;;;;5055711;28;20848;-78
2022/10/10 11:40:41;;;;;;;45.80;43.57;;;21.70;65.10;;;;;;5048494;28;20492;-79
2022/10/10 11:43:16;;;;;;;45.80;43.13;;;21.70;64.70;;;;;;5045044;28;20523;-78
2022/10/10 11:45:46;;;;;;;38.20;35.90;;;21.70;65.00;;;;;;5045882;28;20542;-79
2022/10/10 11:48:22;;;;;;;44.43;42.03;;;21.80;64.80;;;;;;5056074;28;20522;-79
2022/10/10 11:50:53;;;;;;;41.37;38.87;;;21.90;64.80;;;;;;5057357;28;20797;-79
2022/10/10 11:53:30;;;;;;;42.50;39.80;;;22.00;65.10;;;;;;5052852;28;20486;-78
2022/10/10 11:56:07;;;;;;;34.33;32.43;;;22.00;65.00;;;;;;5041778;28;20466;-79
2022/10/10 11:58:40;;;;;;;37.10;34.90;;;22.10;65.20;;;;;;5060582;28;20483;-78
2022/10/10 12:01:16;;;;;;;46.00;43.50;;;22.10;65.00;;;;;;5053414;28;20484;-77
2022/10/10 12:03:43;;;;;;;42.00;39.50;;;22.10;64.90;;;;;;5047458;28;20537;-79
2022/10/10 12:06:20;;;;;;;36.07;33.77;;;22.20;64.70;;;;;;5053110;28;20508;-78
2022/10/10 12:08:54;;;;;;;51.03;48.33;;;22.30;64.20;;;;;;5052849;28;21021;-78
2022/10/10 12:11:28;;;;;;;35.00;33.00;;;22.30;64.40;;;;;;5049874;28;20552;-77
2022/10/10 12:13:57;;;;;;;41.73;39.27;;;22.30;64.30;;;;;;5048437;28;20501;-77
2022/10/10 12:16:28;;;;;;;51.87;48.50;;;22.40;63.90;;;;;;5050666;28;20558;-78
2022/10/10 12:18:59;;;;;;;34.63;32.67;;;22.40;63.90;;;;;;5044811;28;20520;-75
2022/10/10 12:21:28;;;;;;;42.67;40.23;;;22.50;63.60;;;;;;5048382;28;20457;-78
2022/10/10 12:24:04;;;;;;;33.00;31.00;;;22.70;63.40;;;;;;5049651;28;20483;-78
2022/10/10 12:27:08;;;;;;;37.90;35.77;;;22.90;62.30;;;;;;5046141;28;20459;-80
2022/10/10 12:29:45;;;;;;;34.57;32.50;;;23.00;62.40;;;;;;5036729;28;20451;-80
2022/10/10 12:32:27;;;;;;;36.40;34.50;;;23.30;61.90;;;;;;5045499;28;20490;-78
2022/10/10 12:35:00;;;;;;;34.77;32.80;;;23.50;60.70;;;;;;5047226;28;20566;-79
2022/10/10 12:37:29;;;;;;;42.40;39.83;;;23.60;61.40;;;;;;5051305;28;20931;-79
2022/10/10 12:40:19;;;;;;;47.87;45.07;;;23.90;60.50;;;;;;5048183;28;20949;-80
2022/10/10 12:43:23;;;;;;;39.27;36.93;;;24.10;60.10;;;;;;5031581;28;21107;-78
2022/10/10 12:46:14;;;;;;;48.23;45.30;;;24.30;58.40;;;;;;4981462;28;20450;-79